Time;durP1;ratioP1;P1;durP2;ratioP2;P2;SDS_P1;SDS_P2;PMS_P1;PMS_P2;Temp;Humidity;BMP_temperature;BMP_pressure;BME280_temperature;BME280_humidity;BME280_pressure;Samples;Min_cycle;Max_cycle;Signal;HPM_P1;HPM_P2
2023/05/11 00:01:15;;;;;;;10.30;7.05;;;11.00;99.90;;;;;;5071711;28;20161;-63
2023/05/11 00:03:42;;;;;;;11.00;7.07;;;11.00;99.90;;;;;;5072090;28;20048;-63
2023/05/11 00:06:09;;;;;;;13.27;7.03;;;11.00;99.90;;;;;;5056469;28;20044;-63
2023/05/11 00:08:36;;;;;;;15.45;7.10;;;11.00;99.90;;;;;;5075397;28;20052;-63
2023/05/11 00:11:07;;;;;;;13.73;6.82;;;11.00;99.90;;;;;;5075483;28;20071;-63
2023/05/11 00:13:34;;;;;;;14.27;7.90;;;11.00;99.90;;;;;;5054761;28;20053;-64
2023/05/11 00:16:02;;;;;;;10.90;7.05;;;11.00;99.90;;;;;;5074831;28;20052;-63
2023/05/11 00:18:29;;;;;;;21.38;7.18;;;11.00;99.90;;;;;;5057318;28;20052;-64
2023/05/11 00:20:56;;;;;;;9.57;7.00;;;11.00;99.90;;;;;;5056652;28;20075;-64
2023/05/11 00:23:23;;;;;;;15.00;7.25;;;11.00;99.90;;;;;;5057273;28;20053;-63
2023/05/11 00:25:50;;;;;;;9.13;6.25;;;11.00;99.90;;;;;;5074863;28;20454;-63
2023/05/11 00:28:18;;;;;;;16.58;7.32;;;11.00;99.90;;;;;;5074552;28;20044;-63
2023/05/11 00:30:45;;;;;;;32.72;9.05;;;11.00;99.90;;;;;;5072720;28;20071;-63
2023/05/11 00:33:12;;;;;;;12.57;7.68;;;10.90;99.90;;;;;;5074983;28;20419;-63
2023/05/11 00:35:39;;;;;;;10.65;6.40;;;10.90;99.90;;;;;;5071964;28;20049;-63
2023/05/11 00:38:06;;;;;;;13.38;7.20;;;10.90;99.90;;;;;;5074997;28;20090;-63
2023/05/11 00:40:33;;;;;;;10.27;6.30;;;11.00;99.90;;;;;;5072123;28;20044;-63
2023/05/11 00:43:00;;;;;;;12.10;6.70;;;10.90;99.90;;;;;;5074731;28;20086;-63
2023/05/11 00:45:29;;;;;;;11.20;6.70;;;10.90;99.90;;;;;;5074438;28;20037;-63
2023/05/11 00:47:57;;;;;;;9.63;5.95;;;10.90;99.90;;;;;;5074068;28;20044;-63
2023/05/11 00:50:25;;;;;;;10.30;6.68;;;10.90;99.90;;;;;;5074819;28;20080;-63
2023/05/11 00:52:52;;;;;;;14.30;7.20;;;10.90;99.90;;;;;;5056657;28;20131;-64
2023/05/11 00:55:20;;;;;;;9.10;6.35;;;10.80;99.90;;;;;;5055681;28;20048;-63
2023/05/11 00:57:48;;;;;;;46.45;9.50;;;10.80;99.90;;;;;;5074351;28;20454;-63
2023/05/11 01:00:15;;;;;;;59.17;10.05;;;10.90;99.90;;;;;;5074377;28;20044;-63
2023/05/11 01:02:43;;;;;;;43.60;10.40;;;10.90;99.90;;;;;;5071987;28;20071;-63
2023/05/11 01:05:11;;;;;;;24.48;7.82;;;10.80;99.90;;;;;;5052684;28;20167;-63
2023/05/11 01:07:45;;;;;;;10.85;6.32;;;10.70;99.90;;;;;;5054344;28;20037;-63
2023/05/11 01:10:21;;;;;;;8.23;5.85;;;10.80;99.90;;;;;;5052650;28;20048;-62
2023/05/11 01:12:56;;;;;;;9.35;6.47;;;10.80;99.90;;;;;;5052137;28;20414;-63
2023/05/11 01:15:30;;;;;;;12.73;6.40;;;10.80;99.90;;;;;;5052138;28;20099;-63
2023/05/11 01:18:08;;;;;;;10.32;5.85;;;10.80;99.90;;;;;;5052608;28;20132;-63
2023/05/11 01:20:36;;;;;;;10.48;6.72;;;10.80;99.90;;;;;;5050506;28;20519;-63
2023/05/11 01:23:17;;;;;;;8.40;5.53;;;10.80;99.90;;;;;;5052360;28;20057;-63
2023/05/11 01:26:10;;;;;;;7.88;5.20;;;10.80;99.90;;;;;;5053708;28;20552;-63
2023/05/11 01:29:05;;;;;;;8.02;5.93;;;10.80;99.90;;;;;;5052834;28;20059;-63
2023/05/11 01:31:35;;;;;;;10.45;6.70;;;10.80;99.90;;;;;;5052286;28;20488;-63
2023/05/11 01:34:05;;;;;;;12.50;7.73;;;10.80;99.90;;;;;;5053792;28;20083;-63
2023/05/11 01:36:36;;;;;;;11.40;7.28;;;10.80;99.90;;;;;;5053511;28;20053;-63
2023/05/11 01:39:07;;;;;;;14.60;7.53;;;10.80;99.90;;;;;;5053391;28;20111;-63
2023/05/11 01:41:35;;;;;;;9.73;7.13;;;10.80;99.90;;;;;;5052771;28;20488;-63
2023/05/11 01:44:05;;;;;;;11.15;7.05;;;10.80;99.90;;;;;;5052984;28;20455;-63
2023/05/11 01:46:34;;;;;;;11.10;6.77;;;10.80;99.90;;;;;;5053315;28;20071;-63
2023/05/11 01:49:05;;;;;;;11.85;7.30;;;10.80;99.90;;;;;;5052509;28;20057;-63
2023/05/11 01:51:36;;;;;;;10.63;6.75;;;10.90;99.90;;;;;;5052864;28;20099;-63
2023/05/11 01:54:05;;;;;;;12.13;7.03;;;10.90;99.90;;;;;;5053519;28;20480;-64
2023/05/11 01:56:33;;;;;;;10.57;7.20;;;10.80;99.90;;;;;;5053004;28;20044;-63
2023/05/11 01:59:02;;;;;;;9.25;6.00;;;10.80;99.90;;;;;;5052810;28;20079;-64
2023/05/11 02:01:31;;;;;;;14.43;8.05;;;10.80;99.90;;;;;;5053198;28;20048;-63
2023/05/11 02:04:02;;;;;;;16.48;7.70;;;10.90;99.90;;;;;;5051110;28;20538;-64
2023/05/11 02:06:31;;;;;;;11.23;7.43;;;10.90;99.90;;;;;;5071007;28;20091;-63
2023/05/11 02:09:00;;;;;;;11.32;7.55;;;10.90;99.90;;;;;;5073023;28;20044;-63
2023/05/11 02:11:29;;;;;;;9.55;6.80;;;10.90;99.90;;;;;;5072825;28;20052;-63
2023/05/11 02:13:58;;;;;;;10.80;7.07;;;10.80;99.90;;;;;;5072559;28;20044;-62
2023/05/11 02:16:26;;;;;;;11.10;6.90;;;10.80;99.90;;;;;;5070977;28;20041;-63
2023/05/11 02:18:55;;;;;;;12.70;6.75;;;10.80;99.90;;;;;;5072786;28;20048;-63
2023/05/11 02:21:24;;;;;;;11.40;7.43;;;10.90;99.90;;;;;;5054874;28;20047;-63
2023/05/11 02:23:52;;;;;;;11.23;6.95;;;10.90;99.90;;;;;;5053377;28;20048;-63
2023/05/11 02:26:19;;;;;;;19.42;7.13;;;10.80;99.90;;;;;;5071279;28;20784;-64
2023/05/11 02:28:46;;;;;;;13.77;7.05;;;10.40;99.90;;;;;;5072875;28;20056;-63
2023/05/11 02:31:19;;;;;;;69.90;10.05;;;10.80;99.90;;;;;;5054858;28;20105;-63
2023/05/11 02:33:50;;;;;;;20.27;7.85;;;10.80;99.90;;;;;;5054234;28;20063;-64
2023/05/11 02:36:20;;;;;;;13.57;6.65;;;10.80;99.90;;;;;;5072383;28;20446;-64
2023/05/11 02:38:50;;;;;;;12.23;5.60;;;10.70;99.90;;;;;;5070908;28;20055;-62
2023/05/11 02:41:24;;;;;;;10.80;5.97;;;10.80;99.90;;;;;;5054094;28;20105;-63
2023/05/11 02:43:54;;;;;;;17.48;6.57;;;10.70;99.90;;;;;;5072452;28;20495;-62
2023/05/11 02:46:24;;;;;;;22.13;6.93;;;10.70;99.90;;;;;;5054324;28;20045;-63
2023/05/11 02:48:53;;;;;;;;;;;10.70;99.90;;;;;;5070795;28;20102;-64
2023/05/11 02:51:24;;;;;;;33.45;7.78;;;10.70;99.90;;;;;;5072370;28;20011;-63
2023/05/11 02:53:53;;;;;;;;;;;10.70;99.90;;;;;;5072914;28;20416;-64
2023/05/11 02:56:20;;;;;;;35.30;8.40;;;10.70;99.90;;;;;;5071621;28;20350;-62
2023/05/11 02:58:49;;;;;;;16.15;7.82;;;10.70;99.90;;;;;;5072235;28;20051;-63
2023/05/11 03:01:16;;;;;;;13.57;5.55;;;10.70;99.90;;;;;;5053555;28;20052;-63
2023/05/11 03:03:43;;;;;;;10.27;5.68;;;10.70;99.90;;;;;;5072326;28;20053;-62
2023/05/11 03:06:11;;;;;;;7.45;5.18;;;10.70;99.90;;;;;;5071713;28;20557;-63
2023/05/11 03:08:38;;;;;;;7.88;4.82;;;10.70;99.90;;;;;;5071453;28;20037;-63
2023/05/11 03:11:07;;;;;;;8.02;4.93;;;10.70;99.90;;;;;;5072108;28;20045;-62
2023/05/11 03:13:34;;;;;;;19.13;5.88;;;10.70;99.90;;;;;;5051805;28;20549;-63
2023/05/11 03:16:02;;;;;;;9.75;5.30;;;10.70;99.90;;;;;;5053389;28;20076;-63
2023/05/11 03:18:30;;;;;;;21.92;6.40;;;10.70;99.90;;;;;;5072173;28;20040;-63
2023/05/11 03:21:00;;;;;;;14.35;5.68;;;10.70;99.90;;;;;;5071931;28;20114;-62
2023/05/11 03:23:28;;;;;;;14.18;5.65;;;10.70;99.90;;;;;;5071612;28;20052;-63
2023/05/11 03:25:55;;;;;;;14.32;5.63;;;10.80;99.90;;;;;;5069672;28;20515;-63
2023/05/11 03:28:25;;;;;;;19.20;5.55;;;10.70;99.90;;;;;;5071821;28;20460;-64
2023/05/11 03:30:53;;;;;;;7.80;4.72;;;10.70;99.90;;;;;;5071448;28;20048;-62
2023/05/11 03:33:20;;;;;;;10.35;5.88;;;10.70;99.90;;;;;;5050708;28;20109;-64
2023/05/11 03:35:49;;;;;;;9.23;5.45;;;10.70;99.90;;;;;;5071756;28;20123;-64
2023/05/11 03:38:17;;;;;;;8.55;5.15;;;10.70;99.90;;;;;;5071016;28;20060;-64
2023/05/11 03:40:45;;;;;;;8.23;4.97;;;10.60;99.90;;;;;;5075710;28;20113;-64
2023/05/11 03:43:16;;;;;;;9.25;5.70;;;10.70;99.90;;;;;;5057950;28;20496;-64
2023/05/11 03:45:45;;;;;;;26.20;7.68;;;10.70;99.90;;;;;;5073203;28;20053;-64
2023/05/11 03:48:14;;;;;;;11.88;6.75;;;10.70;99.90;;;;;;5075460;28;20047;-63
2023/05/11 03:50:42;;;;;;;15.02;7.00;;;10.70;99.90;;;;;;5067935;28;20554;-63
2023/05/11 03:53:10;;;;;;;15.48;7.15;;;10.70;99.90;;;;;;5068923;28;20174;-64
2023/05/11 03:55:37;;;;;;;12.63;6.70;;;10.70;99.90;;;;;;5071532;28;20057;-63
2023/05/11 03:58:07;;;;;;;18.90;8.73;;;10.70;99.90;;;;;;5052364;28;20045;-64
2023/05/11 04:00:37;;;;;;;13.68;7.20;;;10.70;99.90;;;;;;5053507;28;20193;-63
2023/05/11 04:03:06;;;;;;;25.73;9.10;;;10.70;99.90;;;;;;5071563;28;20114;-63
2023/05/11 04:05:33;;;;;;;9.32;6.35;;;10.70;99.90;;;;;;5071006;28;20086;-64
2023/05/11 04:08:01;;;;;;;16.40;7.93;;;10.80;99.90;;;;;;5074296;28;20551;-64
2023/05/11 04:10:28;;;;;;;14.75;7.80;;;10.90;99.90;;;;;;5072284;28;20048;-64
2023/05/11 04:12:55;;;;;;;19.85;8.93;;;11.00;99.90;;;;;;5055805;28;20052;-65
2023/05/11 04:15:22;;;;;;;30.23;10.40;;;11.00;99.90;;;;;;5054387;28;20046;-63
2023/05/11 04:17:49;;;;;;;25.95;10.93;;;11.10;99.90;;;;;;5054930;28;20052;-63
2023/05/11 04:20:17;;;;;;;29.98;11.05;;;11.00;99.90;;;;;;5072620;28;20059;-64
2023/05/11 04:22:44;;;;;;;30.08;13.88;;;11.00;99.90;;;;;;5055333;28;20979;-64
2023/05/11 04:25:12;;;;;;;25.58;13.10;;;11.10;99.90;;;;;;5054359;28;20065;-63
2023/05/11 04:27:39;;;;;;;26.27;13.32;;;11.00;99.90;;;;;;5053215;28;20534;-64
2023/05/11 04:30:07;;;;;;;28.95;14.45;;;11.00;99.90;;;;;;5073986;28;20115;-63
2023/05/11 04:32:34;;;;;;;26.63;14.07;;;11.10;99.90;;;;;;5054742;28;20044;-63
2023/05/11 04:35:01;;;;;;;30.48;15.95;;;10.50;99.90;;;;;;5073062;28;20060;-63
2023/05/11 04:37:30;;;;;;;33.90;16.25;;;11.10;99.90;;;;;;5071767;28;20037;-63
2023/05/11 04:39:57;;;;;;;32.42;15.02;;;11.10;99.90;;;;;;5070747;28;20511;-65
2023/05/11 04:42:24;;;;;;;28.52;15.32;;;11.20;99.90;;;;;;5054777;28;20044;-66
2023/05/11 04:44:53;;;;;;;32.33;16.75;;;11.20;99.90;;;;;;5052278;28;20106;-66
2023/05/11 04:47:20;;;;;;;38.47;17.95;;;11.10;99.90;;;;;;5053717;28;20048;-66
2023/05/11 04:49:46;;;;;;;32.05;16.83;;;11.10;99.90;;;;;;5073129;28;20052;-64
2023/05/11 04:52:13;;;;;;;43.03;19.27;;;11.10;99.90;;;;;;5070942;28;20102;-65
2023/05/11 04:54:42;;;;;;;31.25;15.55;;;11.00;99.90;;;;;;5055177;28;20049;-64
2023/05/11 04:57:09;;;;;;;32.65;15.90;;;11.10;99.90;;;;;;5072027;28;20049;-65
2023/05/11 04:59:35;;;;;;;34.47;16.38;;;11.00;99.90;;;;;;5053458;28;20447;-64
2023/05/11 05:02:02;;;;;;;34.03;16.77;;;11.00;99.90;;;;;;5069497;28;20492;-63
2023/05/11 05:04:29;;;;;;;28.08;14.95;;;11.10;99.90;;;;;;5053952;28;20056;-64
2023/05/11 05:06:56;;;;;;;25.80;12.57;;;11.00;99.90;;;;;;5054663;28;20053;-65
2023/05/11 05:09:23;;;;;;;24.83;12.35;;;11.10;99.90;;;;;;5071735;28;20052;-64
2023/05/11 05:11:51;;;;;;;20.67;11.63;;;11.00;99.90;;;;;;5071421;28;20044;-65
2023/05/11 05:14:19;;;;;;;24.15;12.25;;;11.00;99.90;;;;;;5054729;28;20060;-63
2023/05/11 05:16:45;;;;;;;17.75;10.50;;;11.00;99.90;;;;;;5054731;28;20098;-63
2023/05/11 05:19:12;;;;;;;21.85;11.85;;;11.00;99.90;;;;;;5071642;28;20519;-63
2023/05/11 05:21:39;;;;;;;20.55;11.45;;;11.00;99.90;;;;;;5073419;28;20056;-63
2023/05/11 05:24:09;;;;;;;22.38;10.77;;;11.10;99.90;;;;;;5070827;28;20098;-67
2023/05/11 05:26:36;;;;;;;20.52;11.30;;;11.00;99.90;;;;;;5072958;28;20123;-67
2023/05/11 05:29:05;;;;;;;21.73;11.10;;;11.10;99.90;;;;;;5052985;28;20534;-68
2023/05/11 05:31:33;;;;;;;18.63;10.80;;;11.10;99.90;;;;;;5055273;28;20385;-68
2023/05/11 05:33:59;;;;;;;17.70;10.13;;;11.10;99.90;;;;;;5054261;28;20056;-67
2023/05/11 05:36:26;;;;;;;18.65;10.57;;;11.20;99.90;;;;;;5054144;28;20044;-67
2023/05/11 05:38:53;;;;;;;16.65;9.93;;;11.20;99.90;;;;;;5071871;28;20048;-67
2023/05/11 05:41:21;;;;;;;20.58;11.38;;;11.20;99.90;;;;;;5073093;28;20099;-64
2023/05/11 05:43:49;;;;;;;19.08;10.38;;;11.30;99.90;;;;;;5052559;28;20088;-64
2023/05/11 05:46:17;;;;;;;17.42;10.48;;;11.30;99.90;;;;;;5054774;28;20514;-64
2023/05/11 05:48:44;;;;;;;16.13;9.55;;;11.40;99.90;;;;;;5071100;28;20525;-63
2023/05/11 05:51:11;;;;;;;21.55;12.02;;;11.40;99.90;;;;;;5053516;28;20098;-64
2023/05/11 05:53:38;;;;;;;20.13;12.32;;;11.40;99.90;;;;;;5052914;28;20045;-64
2023/05/11 05:56:06;;;;;;;20.48;11.18;;;11.50;99.90;;;;;;5050683;28;20488;-63
2023/05/11 05:58:32;;;;;;;16.52;10.68;;;11.50;99.90;;;;;;5054101;28;20098;-63
2023/05/11 06:01:00;;;;;;;20.80;11.07;;;11.50;99.90;;;;;;5052135;28;20936;-64
2023/05/11 06:03:28;;;;;;;18.88;11.55;;;11.50;99.90;;;;;;5072664;28;20040;-64
2023/05/11 06:05:55;;;;;;;17.65;11.18;;;11.60;99.90;;;;;;5048680;28;20109;-65
2023/05/11 06:08:22;;;;;;;16.90;10.43;;;11.60;99.90;;;;;;5051285;28;20061;-63
2023/05/11 06:10:49;;;;;;;17.92;11.57;;;11.70;99.90;;;;;;5050511;28;20052;-63
2023/05/11 06:13:16;;;;;;;18.02;11.20;;;11.70;99.90;;;;;;5051042;28;20057;-63
2023/05/11 06:15:43;;;;;;;19.35;12.38;;;11.80;99.90;;;;;;5047269;28;20566;-64
2023/05/11 06:18:10;;;;;;;20.27;11.75;;;11.90;99.90;;;;;;5052396;28;20114;-64
2023/05/11 06:20:38;;;;;;;23.67;13.13;;;12.00;99.90;;;;;;5050037;28;20048;-64
2023/05/11 06:23:05;;;;;;;20.92;12.07;;;12.10;99.90;;;;;;5052165;28;20136;-64
2023/05/11 06:25:34;;;;;;;21.52;12.75;;;12.10;99.90;;;;;;5048877;28;20052;-64
2023/05/11 06:28:01;;;;;;;18.15;11.27;;;12.20;99.90;;;;;;5051245;28;20053;-64
2023/05/11 06:30:28;;;;;;;16.23;10.35;;;12.20;99.90;;;;;;5048593;28;20049;-64
2023/05/11 06:32:55;;;;;;;15.63;8.77;;;12.30;99.90;;;;;;5051791;28;20056;-64
2023/05/11 06:35:22;;;;;;;16.30;10.18;;;12.30;99.90;;;;;;5048584;28;20118;-64
2023/05/11 06:37:50;;;;;;;13.57;9.05;;;12.30;99.90;;;;;;5051374;28;20131;-64
2023/05/11 06:40:17;;;;;;;13.90;9.32;;;12.40;99.90;;;;;;5047458;28;20053;-65
2023/05/11 06:42:44;;;;;;;18.77;9.13;;;12.50;99.90;;;;;;5048843;28;20069;-64
2023/05/11 06:45:11;;;;;;;14.35;9.15;;;12.60;99.90;;;;;;5050358;28;20519;-64
2023/05/11 06:47:38;;;;;;;12.32;7.60;;;12.60;99.90;;;;;;5047739;28;20041;-64
2023/05/11 06:50:06;;;;;;;12.23;7.63;;;12.70;99.90;;;;;;5049640;28;20048;-63
2023/05/11 06:52:33;;;;;;;13.63;8.18;;;12.70;99.90;;;;;;5049652;28;20091;-64
2023/05/11 06:55:01;;;;;;;10.55;6.93;;;12.70;99.90;;;;;;5051237;28;20045;-64
2023/05/11 06:57:28;;;;;;;12.27;6.65;;;12.70;99.90;;;;;;5048894;28;20045;-66
2023/05/11 06:59:55;;;;;;;10.40;6.55;;;12.80;99.90;;;;;;5050045;28;20055;-64
2023/05/11 07:02:22;;;;;;;11.95;7.00;;;12.80;99.90;;;;;;5051009;28;20060;-64
2023/05/11 07:04:49;;;;;;;12.57;7.18;;;12.90;99.90;;;;;;5056879;28;20057;-64
2023/05/11 07:07:15;;;;;;;12.05;7.50;;;13.00;99.90;;;;;;5054112;28;20045;-64
2023/05/11 07:09:42;;;;;;;11.68;7.43;;;13.00;99.90;;;;;;5053545;28;20053;-64
2023/05/11 07:12:11;;;;;;;13.15;7.45;;;13.00;99.90;;;;;;5054124;28;20071;-64
2023/05/11 07:14:37;;;;;;;13.25;7.72;;;13.10;99.90;;;;;;5053524;28;20059;-63
2023/05/11 07:17:04;;;;;;;11.80;7.07;;;13.10;99.90;;;;;;5069212;28;20045;-63
2023/05/11 07:19:31;;;;;;;11.95;7.13;;;13.10;99.90;;;;;;5051735;28;20041;-63
2023/05/11 07:21:59;;;;;;;11.43;7.13;;;13.00;99.90;;;;;;5071190;28;20399;-64
2023/05/11 07:24:27;;;;;;;11.15;6.80;;;13.10;99.90;;;;;;5053767;28;20128;-63
2023/05/11 07:26:54;;;;;;;12.35;7.57;;;13.10;99.90;;;;;;5053813;28;20557;-64
2023/05/11 07:29:22;;;;;;;11.70;7.22;;;13.20;99.90;;;;;;5071371;28;20423;-63
2023/05/11 07:31:49;;;;;;;12.77;7.20;;;13.30;99.90;;;;;;5053832;28;20102;-63
2023/05/11 07:34:16;;;;;;;11.55;7.05;;;13.30;99.90;;;;;;5053541;28;20101;-63
2023/05/11 07:36:43;;;;;;;11.50;7.30;;;13.30;99.90;;;;;;5071259;28;20044;-63
2023/05/11 07:39:11;;;;;;;13.50;7.88;;;13.30;99.90;;;;;;5053642;28;20048;-63
2023/05/11 07:41:37;;;;;;;11.32;7.18;;;13.40;99.90;;;;;;5071874;28;20040;-64
2023/05/11 07:44:05;;;;;;;10.88;6.93;;;13.50;99.90;;;;;;5053520;28;20494;-65
2023/05/11 07:46:33;;;;;;;12.98;7.35;;;13.50;99.90;;;;;;5071604;28;20045;-64
2023/05/11 07:49:00;;;;;;;10.93;6.32;;;13.60;99.90;;;;;;5070869;28;20057;-64
2023/05/11 07:51:27;;;;;;;11.88;7.57;;;13.70;99.90;;;;;;5053260;28;20155;-64
2023/05/11 07:53:54;;;;;;;10.45;6.82;;;13.80;99.90;;;;;;5071426;28;20074;-64
2023/05/11 07:56:21;;;;;;;10.20;7.18;;;13.80;99.90;;;;;;5071104;28;20045;-64
2023/05/11 07:58:48;;;;;;;10.95;7.85;;;13.80;99.90;;;;;;5070618;28;20045;-64
2023/05/11 08:01:15;;;;;;;12.43;7.40;;;13.70;99.90;;;;;;5071641;28;20068;-64
2023/05/11 08:03:43;;;;;;;12.65;7.00;;;13.70;99.90;;;;;;5053638;28;20055;-63
2023/05/11 08:06:11;;;;;;;10.35;7.07;;;13.80;99.90;;;;;;5071064;28;20048;-63
2023/05/11 08:08:37;;;;;;;11.23;7.82;;;13.80;99.90;;;;;;5071369;28;20119;-64
2023/05/11 08:11:05;;;;;;;11.82;7.82;;;13.70;99.90;;;;;;5052989;28;20052;-64
2023/05/11 08:13:32;;;;;;;11.20;7.28;;;13.80;99.90;;;;;;5069306;28;20435;-64
2023/05/11 08:15:59;;;;;;;11.73;7.38;;;13.80;99.90;;;;;;5053306;28;20051;-63
2023/05/11 08:18:26;;;;;;;11.50;7.03;;;14.00;99.90;;;;;;5070743;28;20064;-64
2023/05/11 08:20:55;;;;;;;10.93;7.55;;;14.10;99.90;;;;;;5053142;28;20053;-64
2023/05/11 08:23:21;;;;;;;10.10;6.80;;;14.20;99.90;;;;;;5071325;28;20450;-64
2023/05/11 08:25:53;;;;;;;8.98;6.45;;;14.20;99.90;;;;;;5072557;28;20487;-64
2023/05/11 08:28:20;;;;;;;9.32;6.30;;;14.20;99.90;;;;;;5074602;28;20040;-64
2023/05/11 08:30:47;;;;;;;10.43;7.00;;;14.10;99.90;;;;;;5072901;28;20043;-64
2023/05/11 08:33:14;;;;;;;10.10;6.25;;;14.10;99.90;;;;;;5074049;28;20458;-64
2023/05/11 08:35:41;;;;;;;10.60;6.97;;;14.10;99.90;;;;;;5074034;28;20052;-64
2023/05/11 08:38:10;;;;;;;11.70;7.50;;;14.20;99.90;;;;;;5074468;28;20061;-64
2023/05/11 08:40:37;;;;;;;11.45;7.80;;;14.10;99.90;;;;;;5073692;28;20040;-64
2023/05/11 08:43:06;;;;;;;9.15;6.65;;;14.10;99.90;;;;;;5074349;28;20046;-64
2023/05/11 08:45:36;;;;;;;12.27;7.25;;;14.00;99.90;;;;;;5056382;28;20086;-64
2023/05/11 08:48:03;;;;;;;13.88;7.22;;;14.10;99.90;;;;;;5072668;28;20049;-64
2023/05/11 08:50:30;;;;;;;10.65;7.32;;;14.20;99.90;;;;;;5074108;28;20531;-64
2023/05/11 08:52:57;;;;;;;11.65;7.35;;;14.10;99.90;;;;;;5074413;28;20041;-64
2023/05/11 08:55:27;;;;;;;11.68;7.90;;;14.10;99.90;;;;;;5056231;28;20548;-63
2023/05/11 08:57:56;;;;;;;10.40;7.00;;;14.00;99.90;;;;;;5074596;28;20094;-65
2023/05/11 09:00:24;;;;;;;14.02;7.63;;;13.90;99.90;;;;;;5071889;28;20049;-64
2023/05/11 09:02:52;;;;;;;10.90;6.78;;;13.90;99.90;;;;;;5074266;28;20059;-64
2023/05/11 09:05:20;;;;;;;11.50;8.20;;;14.00;99.90;;;;;;5073905;28;20127;-64
2023/05/11 09:07:51;;;;;;;13.45;8.52;;;14.00;99.90;;;;;;5073457;28;20127;-64
2023/05/11 09:10:18;;;;;;;10.98;6.90;;;14.10;99.90;;;;;;5073926;28;20047;-64
2023/05/11 09:12:46;;;;;;;11.45;7.57;;;14.10;99.90;;;;;;5056143;28;20063;-64
2023/05/11 09:15:13;;;;;;;10.98;7.28;;;14.10;99.90;;;;;;5073156;28;20056;-65
2023/05/11 09:17:40;;;;;;;10.10;7.25;;;14.20;99.90;;;;;;5073965;28;20105;-64
2023/05/11 09:20:08;;;;;;;10.60;7.32;;;14.30;99.90;;;;;;5073563;28;20052;-64
2023/05/11 09:22:42;;;;;;;10.68;6.57;;;14.40;99.90;;;;;;5072557;28;20760;-64
2023/05/11 09:25:12;;;;;;;12.07;7.50;;;14.50;99.90;;;;;;5072731;28;20048;-63
2023/05/11 09:27:41;;;;;;;10.60;7.47;;;14.60;99.90;;;;;;5071763;28;20147;-63
2023/05/11 09:30:15;;;;;;;9.40;6.28;;;14.70;99.90;;;;;;5072835;28;20807;-64
2023/05/11 09:32:50;;;;;;;10.35;6.90;;;14.70;99.90;;;;;;5054828;28;20052;-64
2023/05/11 09:35:22;;;;;;;9.15;6.40;;;14.70;99.90;;;;;;5072218;28;20105;-64
2023/05/11 09:37:59;;;;;;;8.05;5.78;;;15.00;99.90;;;;;;5073545;28;20056;-64
2023/05/11 09:40:27;;;;;;;8.32;5.90;;;15.40;99.90;;;;;;5046913;28;20045;-64
2023/05/11 09:42:55;;;;;;;8.55;6.30;;;15.90;99.90;;;;;;5051447;28;20060;-64
2023/05/11 09:45:36;;;;;;;8.18;5.82;;;16.40;99.90;;;;;;5071605;28;20105;-64
2023/05/11 09:48:04;;;;;;;10.65;6.07;;;16.70;99.90;;;;;;5067799;28;20048;-64
2023/05/11 09:50:34;;;;;;;9.65;6.57;;;16.80;99.90;;;;;;5071042;28;20041;-64
2023/05/11 09:53:01;;;;;;;7.78;5.90;;;17.10;99.90;;;;;;5068425;28;20090;-64
2023/05/11 09:55:28;;;;;;;8.15;6.07;;;17.60;99.90;;;;;;5072014;28;20495;-63
2023/05/11 09:57:57;;;;;;;8.43;5.65;;;18.10;99.90;;;;;;5066341;28;20095;-65
2023/05/11 10:00:25;;;;;;;7.18;5.25;;;18.50;99.90;;;;;;5053924;28;20048;-64
2023/05/11 10:03:05;;;;;;;7.15;5.60;;;18.80;99.90;;;;;;5069876;28;20051;-64
2023/05/11 10:05:33;;;;;;;10.20;6.63;;;18.90;99.90;;;;;;5053009;28;20056;-64
2023/05/11 10:08:01;;;;;;;6.93;5.32;;;19.00;99.90;;;;;;5053391;28;20117;-65
2023/05/11 10:10:29;;;;;;;8.43;5.68;;;19.10;99.90;;;;;;5071271;28;20075;-64
2023/05/11 10:12:57;;;;;;;7.65;5.55;;;19.20;99.90;;;;;;5070190;28;20466;-64
2023/05/11 10:15:26;;;;;;;7.70;5.03;;;19.30;99.90;;;;;;5070498;28;20056;-63
2023/05/11 10:17:55;;;;;;;6.75;5.32;;;19.10;99.90;;;;;;5052231;28;20066;-65
2023/05/11 10:20:24;;;;;;;8.90;5.63;;;19.20;99.90;;;;;;5069882;28;20044;-65
2023/05/11 10:22:53;;;;;;;7.78;5.57;;;19.10;99.90;;;;;;5053647;28;20496;-64
2023/05/11 10:25:21;;;;;;;8.90;6.38;;;19.00;99.90;;;;;;5051452;28;20053;-63
2023/05/11 10:27:48;;;;;;;6.93;5.30;;;19.00;99.90;;;;;;5069175;28;20082;-65
2023/05/11 10:30:16;;;;;;;10.07;6.00;;;19.00;99.90;;;;;;5052239;28;20044;-64
2023/05/11 10:32:44;;;;;;;8.10;5.85;;;19.20;99.90;;;;;;5071082;28;20052;-64
2023/05/11 10:35:11;;;;;;;9.45;5.20;;;19.00;99.90;;;;;;5052849;28;20127;-65
2023/05/11 10:37:41;;;;;;;7.70;5.70;;;19.00;99.90;;;;;;5069187;28;20042;-64
2023/05/11 10:40:09;;;;;;;7.28;5.80;;;19.00;99.90;;;;;;5051622;28;20051;-65
2023/05/11 10:43:05;;;;;;;6.97;5.20;;;19.10;99.90;;;;;;5071447;28;20056;-64
2023/05/11 10:45:42;;;;;;;8.50;5.13;;;19.10;99.90;;;;;;5011410;28;20110;-65
2023/05/11 10:48:31;;;;;;;6.93;5.22;;;19.50;99.90;;;;;;5051725;28;20106;-64
2023/05/11 10:51:16;;;;;;;7.47;5.43;;;19.50;99.90;;;;;;5070807;28;20078;-65
2023/05/11 10:54:23;;;;;;;6.68;5.43;;;19.70;99.90;;;;;;5068833;28;20094;-65
2023/05/11 10:57:06;;;;;;;7.07;5.43;;;20.00;99.90;;;;;;5057795;28;20055;-64
2023/05/11 10:59:56;;;;;;;5.93;4.80;;;20.00;99.90;;;;;;5051316;28;20041;-64
2023/05/11 11:02:30;;;;;;;6.13;4.78;;;20.30;99.90;;;;;;5050618;28;20076;-65
2023/05/11 11:04:59;;;;;;;5.93;4.72;;;20.10;99.90;;;;;;5071001;28;20060;-65
2023/05/11 11:07:27;;;;;;;5.95;4.45;;;20.40;99.90;;;;;;5068982;28;20380;-65
2023/05/11 11:09:59;;;;;;;5.90;4.40;;;20.30;99.90;;;;;;5070726;28;20094;-64
2023/05/11 11:12:26;;;;;;;7.75;5.05;;;20.30;99.90;;;;;;5051081;28;20074;-65
2023/05/11 11:14:55;;;;;;;5.07;4.03;;;20.60;99.90;;;;;;5052187;28;20057;-65
2023/05/11 11:17:25;;;;;;;5.45;4.20;;;20.70;99.90;;;;;;5052687;28;20056;-66
2023/05/11 11:19:53;;;;;;;5.75;4.18;;;20.70;99.90;;;;;;5052745;28;20468;-64
2023/05/11 11:22:45;;;;;;;6.28;4.47;;;20.80;99.90;;;;;;5068512;28;20044;-65
2023/05/11 11:25:15;;;;;;;5.70;3.55;;;20.90;99.90;;;;;;5069518;28;20051;-65
2023/05/11 11:27:56;;;;;;;4.47;3.63;;;20.90;99.90;;;;;;5068770;28;20048;-63
2023/05/11 11:30:24;;;;;;;12.55;4.65;;;20.80;99.90;;;;;;5069568;28;20049;-64
2023/05/11 11:32:52;;;;;;;4.47;3.30;;;20.80;99.90;;;;;;5071042;28;20051;-63
2023/05/11 11:35:47;;;;;;;4.80;3.25;;;20.80;99.90;;;;;;5066108;28;20106;-63
2023/05/11 11:38:16;;;;;;;4.68;3.35;;;20.60;99.90;;;;;;5051478;28;20545;-64
2023/05/11 11:40:46;;;;;;;4.00;2.77;;;20.80;99.90;;;;;;5050852;28;20118;-64
2023/05/11 11:43:16;;;;;;;4.78;3.00;;;20.80;99.90;;;;;;5068766;28;20495;-64
2023/05/11 11:45:51;;;;;;;3.90;2.90;;;20.90;99.90;;;;;;5069560;28;20158;-64
2023/05/11 11:48:22;;;;;;;6.00;3.00;;;21.10;99.90;;;;;;5070033;28;20086;-64
2023/05/11 11:51:01;;;;;;;4.18;2.92;;;21.20;99.90;;;;;;5071158;28;20044;-65
2023/05/11 11:54:05;;;;;;;4.40;2.47;;;21.20;99.90;;;;;;5070703;28;20041;-65
2023/05/11 11:56:44;;;;;;;8.00;2.17;;;21.30;99.90;;;;;;5052264;28;20061;-64
2023/05/11 11:59:13;;;;;;;3.30;2.10;;;21.50;99.90;;;;;;5051670;28;20053;-64
2023/05/11 12:01:41;;;;;;;2.50;1.60;;;21.70;99.90;;;;;;5075451;28;20059;-64
2023/05/11 12:04:40;;;;;;;3.03;1.70;;;22.10;99.90;;;;;;5074816;28;20052;-64
2023/05/11 12:07:10;;;;;;;3.05;1.60;;;22.30;99.90;;;;;;5054881;28;20123;-65
2023/05/11 12:09:41;;;;;;;;;;;22.40;99.90;;;;;;5055859;28;20041;-64
2023/05/11 12:12:10;;;;;;;3.05;1.50;;;22.30;99.90;;;;;;5054601;28;19920;-64
2023/05/11 12:14:39;;;;;;;3.42;2.00;;;22.40;99.90;;;;;;5037394;28;20485;-64
2023/05/11 12:17:12;;;;;;;2.45;1.10;;;22.30;99.90;;;;;;5036844;28;20489;-65
2023/05/11 12:19:40;;;;;;;2.92;1.60;;;22.30;99.90;;;;;;5036049;28;20065;-64
2023/05/11 12:22:09;;;;;;;2.67;1.67;;;22.30;99.90;;;;;;5055007;28;20523;-64
2023/05/11 12:24:37;;;;;;;3.42;1.75;;;22.40;99.90;;;;;;5054541;28;20408;-64
2023/05/11 12:27:04;;;;;;;3.90;1.13;;;22.50;99.90;;;;;;5054957;28;20110;-64
2023/05/11 12:29:41;;;;;;;7.20;1.10;;;22.60;99.90;;;;;;5055182;28;20041;-65
2023/05/11 12:32:12;;;;;;;2.08;1.13;;;22.30;99.90;;;;;;5036228;28;20395;-65
2023/05/11 12:34:39;;;;;;;1.65;0.85;;;22.30;99.90;;;;;;5053703;28;20049;-66
2023/05/11 12:37:07;;;;;;;1.88;1.02;;;22.40;99.90;;;;;;5048392;28;20453;-65
2023/05/11 12:39:34;;;;;;;3.20;1.98;;;22.40;99.90;;;;;;5046199;28;20099;-65
2023/05/11 12:42:01;;;;;;;2.55;1.98;;;22.30;99.90;;;;;;5033497;28;20400;-65
2023/05/11 12:44:28;;;;;;;4.20;2.10;;;22.20;99.90;;;;;;5053883;28;20053;-65
2023/05/11 12:46:57;;;;;;;2.80;1.70;;;22.10;99.90;;;;;;5033451;28;20057;-66
2023/05/11 12:49:26;;;;;;;3.92;2.00;;;22.20;99.90;;;;;;5054148;28;20041;-65